KSJN

St Johns Industrial Airpark

St Johns, Arizona, USA
METAR KSJN 250454Z AUTO 19004KT 10SM CLR 18/M07 A3018 RMK AO2 SLP133 T01781072 TSNO
Observed Flight Rules
May-25 @ 04:54 UTC (33 minutes ago) Visual Flight Rules
Wind Visibility Clouds
190° at 4 knots 10 miles
  • Clear skies
Temperatures Readings
Current 18°C / 64°F
Dewpoint -7°C / 19°F
Humidity 18%
Altimeter 30.18" Hg
Pressure 1013.3 hPa
Elevation 1745
METAR KSJN 250454Z AUTO 19004KT 10SM CLR 18/M07 A3018 RMK AO2 SLP133 T01781072 TSNO
Observed Flight Rules
May-25 @ 04:54 UTC
(33 minutes ago)
VFR
Wind Visibility
190° at 4 knots 10 miles
Clouds
  • Clear skies
Temperature Dewpoint
18°C / 64°F -7°C / 19°F
Humidity Altimeter Pressure
18% 30.18" Hg 1013.3 hPa